createdAt,value
2018-11-20T00:00:16.039Z,2.73
2018-11-20T00:03:03.182Z,3.93
2018-11-20T00:05:49.914Z,4.20
2018-11-20T00:08:34.070Z,12.63
2018-11-20T00:11:21.236Z,3.00
2018-11-20T00:14:08.439Z,7.67
2018-11-20T00:16:55.618Z,2.80
2018-11-20T00:19:40.880Z,3.87
2018-11-20T00:22:28.076Z,3.83
2018-11-20T00:25:15.268Z,6.00
2018-11-20T00:27:50.561Z,2.73
2018-11-20T00:30:37.755Z,3.27
2018-11-20T00:33:14.934Z,4.10
2018-11-20T00:36:02.480Z,3.93
2018-11-20T00:38:44.367Z,5.00
2018-11-20T00:41:31.660Z,4.27
2018-11-20T00:44:18.849Z,4.97
2018-11-20T00:47:06.204Z,4.80
2018-11-20T00:49:53.420Z,3.97
2018-11-20T00:52:40.616Z,3.37
2018-11-20T00:56:03.874Z,5.00
2018-11-20T00:58:43.896Z,8.93
2018-11-20T01:01:31.078Z,4.53
2018-11-20T01:04:18.274Z,4.90
2018-11-20T01:07:03.478Z,4.30
2018-11-20T01:09:50.915Z,4.77
2018-11-20T01:12:31.364Z,3.53
2018-11-20T01:15:18.548Z,4.00
2018-11-20T01:18:00.982Z,5.40
2018-11-20T01:20:43.598Z,5.93
2018-11-20T01:23:30.778Z,5.13
2018-11-20T01:26:17.972Z,9.00
2018-11-20T01:29:02.540Z,4.80
2018-11-20T01:31:49.737Z,4.47
2018-11-20T01:34:31.469Z,5.47
2018-11-20T01:37:18.665Z,3.97
2018-11-20T01:39:54.234Z,5.53
2018-11-20T01:42:41.439Z,4.63
2018-11-20T01:45:22.327Z,4.40
2018-11-20T01:48:09.487Z,4.30
2018-11-20T01:50:51.423Z,3.50
2018-11-20T01:53:30.203Z,5.70
2018-11-20T01:56:17.395Z,4.47
2018-11-20T01:58:59.957Z,5.80
2018-11-20T02:01:47.697Z,4.50
2018-11-20T02:04:34.935Z,4.70
2018-11-20T02:07:23.074Z,5.17
2018-11-20T02:10:01.963Z,6.47
2018-11-20T02:12:49.141Z,5.33
2018-11-20T02:15:36.333Z,6.50
2018-11-20T02:18:28.770Z,4.80
2018-11-20T02:21:16.251Z,4.93
2018-11-20T02:23:55.457Z,4.77
2018-11-20T02:26:42.682Z,4.33
2018-11-20T02:30:25.588Z,6.53
2018-11-20T02:33:02.922Z,6.87
2018-11-20T02:35:50.101Z,6.03
2018-11-20T02:38:37.271Z,6.87
2018-11-20T02:41:13.944Z,4.80
2018-11-20T02:43:59.394Z,6.70
2018-11-20T02:46:46.750Z,5.40
2018-11-20T02:49:30.423Z,5.27
2018-11-20T02:52:10.591Z,5.37
2018-11-20T02:54:51.333Z,5.80
2018-11-20T02:57:31.996Z,7.47
2018-11-20T03:00:09.744Z,6.17
2018-11-20T03:02:56.940Z,9.03
2018-11-20T03:05:44.145Z,5.73
2018-11-20T03:08:31.379Z,7.47
2018-11-20T03:11:11.510Z,5.60
2018-11-20T03:13:58.706Z,5.87
2018-11-20T03:16:45.873Z,4.93
2018-11-20T03:19:33.114Z,6.70
2018-11-20T03:22:20.444Z,6.50
2018-11-20T03:25:07.612Z,9.13
2018-11-20T03:27:55.086Z,3.50
2018-11-20T03:30:49.746Z,8.13
2018-11-20T03:33:36.933Z,9.03
2018-11-20T03:36:24.278Z,5.90
2018-11-20T03:39:11.471Z,8.90
2018-11-20T03:41:58.664Z,6.93
2018-11-20T03:44:42.546Z,5.43
2018-11-20T03:47:19.614Z,6.97
2018-11-20T03:50:06.816Z,6.17
2018-11-20T03:52:46.869Z,5.63
2018-11-20T03:55:33.685Z,8.17
2018-11-20T03:58:21.134Z,7.60
2018-11-20T04:01:01.154Z,7.97
2018-11-20T04:03:48.371Z,8.47
2018-11-20T04:06:28.954Z,7.07
2018-11-20T04:09:10.972Z,6.77
2018-11-20T04:11:51.052Z,5.50
2018-11-20T04:14:27.916Z,7.17
2018-11-20T04:17:15.112Z,6.47
2018-11-20T04:20:02.312Z,9.67
2018-11-20T04:22:49.526Z,7.93
2018-11-20T04:25:29.576Z,7.40
2018-11-20T04:28:05.714Z,8.40
2018-11-20T04:31:31.401Z,5.87
2018-11-20T04:34:10.562Z,7.13
2018-11-20T04:36:50.529Z,8.13
2018-11-20T04:39:37.702Z,9.40
2018-11-20T04:42:16.784Z,9.07
2018-11-20T04:45:00.204Z,9.80
2018-11-20T04:47:40.696Z,8.93
2018-11-20T04:50:18.344Z,8.97
2018-11-20T04:53:05.553Z,8.47
2018-11-20T04:55:52.795Z,9.33
2018-11-20T04:58:39.982Z,9.03
2018-11-20T05:01:22.667Z,10.23
2018-11-20T05:04:10.151Z,11.20
2018-11-20T05:06:46.967Z,9.63
2018-11-20T05:09:28.529Z,11.17
2018-11-20T05:12:15.156Z,9.43
2018-11-20T05:15:02.339Z,13.67
2018-11-20T05:17:41.024Z,11.80
2018-11-20T05:20:26.065Z,18.07
2018-11-20T05:23:04.148Z,11.17
2018-11-20T05:25:50.934Z,14.27
2018-11-20T05:28:38.125Z,14.83
2018-11-20T05:31:25.592Z,13.30
2018-11-20T05:34:02.563Z,13.83
2018-11-20T05:36:39.711Z,13.83
2018-11-20T05:39:27.840Z,13.20
2018-11-20T05:42:09.690Z,14.63
2018-11-20T05:44:56.855Z,13.17
2018-11-20T05:47:44.066Z,14.50
2018-11-20T05:50:31.229Z,14.90
2018-11-20T05:53:08.947Z,13.80
2018-11-20T05:55:56.169Z,12.77
2018-11-20T05:58:43.398Z,13.57
2018-11-20T06:01:30.617Z,14.77
2018-11-20T06:04:13.167Z,15.10
2018-11-20T06:07:00.351Z,14.67
2018-11-20T06:09:40.185Z,16.10
2018-11-20T06:12:27.361Z,15.13
2018-11-20T06:15:14.544Z,14.83
2018-11-20T06:18:01.734Z,14.43
2018-11-20T06:20:48.917Z,15.83
2018-11-20T06:23:36.137Z,15.83
2018-11-20T06:26:23.339Z,15.90
2018-11-20T06:28:57.898Z,15.40
2018-11-20T06:31:45.070Z,13.53
2018-11-20T06:34:29.267Z,15.40
2018-11-20T06:37:16.384Z,15.47
2018-11-20T06:39:55.371Z,16.80
2018-11-20T06:42:42.581Z,15.97
2018-11-20T06:45:22.851Z,14.53
2018-11-20T06:48:01.813Z,15.30
2018-11-20T06:50:48.999Z,16.13
2018-11-20T06:53:36.370Z,17.07
2018-11-20T06:56:16.163Z,19.93
2018-11-20T06:59:03.372Z,14.53
2018-11-20T07:01:49.919Z,14.80
2018-11-20T07:04:26.843Z,15.00
2018-11-20T07:07:14.161Z,15.03
2018-11-20T07:09:50.720Z,17.57
2018-11-20T07:12:29.923Z,16.07
2018-11-20T07:15:10.039Z,16.73
2018-11-20T07:17:57.291Z,18.23
2018-11-20T07:20:41.211Z,13.73
2018-11-20T07:23:29.132Z,15.43
2018-11-20T07:26:03.503Z,14.17
2018-11-20T07:28:50.728Z,16.70
2018-11-20T07:31:38.008Z,14.77
2018-11-20T07:34:25.203Z,15.23
2018-11-20T07:37:10.199Z,16.77
2018-11-20T07:39:48.766Z,16.43
2018-11-20T07:42:28.316Z,16.40
2018-11-20T07:45:15.589Z,22.43
2018-11-20T07:48:02.746Z,17.80
2018-11-20T07:50:49.941Z,15.27
2018-11-20T07:53:37.145Z,15.73
2018-11-20T07:56:24.510Z,24.23
2018-11-20T07:59:04.582Z,15.90
2018-11-20T08:01:51.800Z,15.03
2018-11-20T08:04:35.770Z,13.87
2018-11-20T08:07:22.990Z,16.83
2018-11-20T08:10:03.101Z,13.50
2018-11-20T08:12:50.316Z,14.33
2018-11-20T08:15:37.661Z,16.53
2018-11-20T08:18:13.680Z,19.03
2018-11-20T08:20:47.191Z,18.97
2018-11-20T08:23:23.767Z,15.70
2018-11-20T08:26:06.208Z,15.97
2018-11-20T08:28:53.359Z,14.90
2018-11-20T08:31:31.617Z,15.80
2018-11-20T08:34:10.488Z,20.63
2018-11-20T08:36:55.175Z,14.23
2018-11-20T08:39:42.387Z,17.63
2018-11-20T08:42:19.812Z,14.33
2018-11-20T08:45:06.908Z,16.30
2018-11-20T08:47:54.141Z,15.73
2018-11-20T08:50:37.029Z,17.93
2018-11-20T08:53:18.626Z,14.37
2018-11-20T08:55:56.776Z,14.20
2018-11-20T08:58:32.656Z,15.77
2018-11-20T09:01:19.874Z,19.53
2018-11-20T09:04:07.136Z,15.60
2018-11-20T09:06:46.421Z,15.80
2018-11-20T09:09:33.668Z,18.37
2018-11-20T09:12:20.904Z,19.70
2018-11-20T09:15:08.132Z,13.47
2018-11-20T09:17:55.382Z,17.03
2018-11-20T09:20:42.570Z,18.80
2018-11-20T09:23:30.112Z,13.07
2018-11-20T09:26:15.951Z,14.77
2018-11-20T09:28:57.322Z,15.17
2018-11-20T09:31:44.501Z,16.30
2018-11-20T09:34:31.785Z,14.60
2018-11-20T09:37:18.936Z,15.80
2018-11-20T09:40:44.652Z,19.07
2018-11-20T09:43:31.884Z,15.57
2018-11-20T09:46:20.996Z,16.03
2018-11-20T09:49:08.430Z,17.07
2018-11-20T09:51:55.624Z,14.53
2018-11-20T09:54:42.855Z,16.47
2018-11-20T09:57:23.586Z,15.17
2018-11-20T10:00:10.802Z,13.63
2018-11-20T10:02:58.021Z,12.43
2018-11-20T10:05:36.742Z,16.67
2018-11-20T10:08:24.339Z,14.77
2018-11-20T10:11:11.548Z,16.73
2018-11-20T10:13:48.900Z,20.13
2018-11-20T10:16:36.088Z,14.90
2018-11-20T10:19:18.543Z,18.80
2018-11-20T10:22:05.882Z,13.83
2018-11-20T10:24:53.344Z,19.00
2018-11-20T10:27:36.244Z,18.30
2018-11-20T10:30:17.029Z,15.67
2018-11-20T10:33:04.256Z,15.37
2018-11-20T10:35:39.680Z,23.87
2018-11-20T10:38:18.419Z,16.80
2018-11-20T10:40:55.422Z,19.47
2018-11-20T10:43:42.787Z,17.53
2018-11-20T10:46:25.847Z,18.33
2018-11-20T10:49:13.018Z,19.37
2018-11-20T10:52:00.215Z,20.97
2018-11-20T10:54:41.660Z,15.70
2018-11-20T10:57:28.872Z,13.27
2018-11-20T11:00:16.107Z,15.90
2018-11-20T11:03:03.591Z,22.27
2018-11-20T11:05:51.612Z,25.17
2018-11-20T11:08:40.171Z,18.17
2018-11-20T11:11:20.615Z,23.83
2018-11-20T11:14:07.794Z,16.37
2018-11-20T11:16:53.067Z,18.50
2018-11-20T11:19:37.041Z,20.37
2018-11-20T11:22:20.766Z,21.80
2018-11-20T11:24:58.606Z,17.43
2018-11-20T11:27:38.082Z,23.93
2018-11-20T11:30:15.133Z,27.63
2018-11-20T11:33:02.399Z,31.30
2018-11-20T11:35:49.609Z,25.20
2018-11-20T11:38:36.823Z,18.13
2018-11-20T11:41:24.061Z,16.30
2018-11-20T11:44:02.931Z,21.57
2018-11-20T11:46:47.627Z,16.23
2018-11-20T11:49:30.086Z,17.07
2018-11-20T11:52:17.269Z,21.87
2018-11-20T11:54:56.061Z,18.43
2018-11-20T11:57:43.957Z,17.63
2018-11-20T12:00:25.142Z,16.77
2018-11-20T12:03:12.583Z,16.83
2018-11-20T12:05:59.841Z,16.60
2018-11-20T12:08:47.034Z,14.80
2018-11-20T12:11:34.257Z,17.87
2018-11-20T12:14:21.465Z,12.80
2018-11-20T12:17:08.651Z,15.33
2018-11-20T12:19:56.121Z,15.63
2018-11-20T12:22:43.383Z,19.60
2018-11-20T12:25:18.716Z,23.30
2018-11-20T12:28:05.957Z,17.43
2018-11-20T12:30:53.571Z,15.17
2018-11-20T12:33:33.117Z,14.10
2018-11-20T12:36:19.969Z,18.87
2018-11-20T12:39:07.183Z,16.60
2018-11-20T12:41:46.641Z,16.33
2018-11-20T12:44:33.837Z,18.27
2018-11-20T12:47:21.089Z,14.17
2018-11-20T12:50:08.610Z,17.07
2018-11-20T12:52:55.361Z,18.10
2018-11-20T12:55:42.553Z,17.37
2018-11-20T12:58:19.742Z,18.83
2018-11-20T13:01:06.961Z,19.73
2018-11-20T13:03:54.133Z,24.20
2018-11-20T13:06:41.394Z,22.63
2018-11-20T13:09:29.893Z,15.70
2018-11-20T13:12:15.390Z,15.57
2018-11-20T13:15:02.655Z,19.43
2018-11-20T13:17:42.383Z,15.87
2018-11-20T13:20:29.757Z,15.97
2018-11-20T13:23:16.852Z,22.83
2018-11-20T13:25:53.781Z,19.43
2018-11-20T13:28:34.981Z,20.70
2018-11-20T13:31:20.807Z,16.47
2018-11-20T13:34:10.524Z,19.47
2018-11-20T13:36:55.470Z,18.27
2018-11-20T13:39:39.053Z,19.07
2018-11-20T13:42:31.850Z,16.80
2018-11-20T13:45:18.624Z,16.87
2018-11-20T13:48:04.827Z,16.30
2018-11-20T13:50:45.284Z,16.43
2018-11-20T13:53:32.473Z,15.70
2018-11-20T13:56:19.688Z,15.63
2018-11-20T13:59:06.907Z,16.87
2018-11-20T14:01:54.106Z,23.43
2018-11-20T14:04:41.327Z,17.47
2018-11-20T14:07:28.531Z,14.57
2018-11-20T14:10:10.391Z,18.77
2018-11-20T14:12:57.609Z,18.20
2018-11-20T14:15:37.071Z,16.90
2018-11-20T14:18:19.145Z,17.03
2018-11-20T14:21:01.464Z,21.77
2018-11-20T14:23:48.669Z,16.63
2018-11-20T14:26:26.460Z,19.07
2018-11-20T14:29:01.880Z,20.90
2018-11-20T14:31:49.148Z,24.37
2018-11-20T14:34:24.851Z,13.90
2018-11-20T14:37:12.034Z,14.40
2018-11-20T14:39:57.973Z,18.50
2018-11-20T14:42:45.189Z,19.50
2018-11-20T14:45:25.447Z,18.70
2018-11-20T14:48:12.694Z,16.73
2018-11-20T14:50:50.736Z,18.23
2018-11-20T14:53:38.202Z,16.53
2018-11-20T14:56:25.396Z,20.33
2018-11-20T14:59:12.666Z,23.83
2018-11-20T15:01:59.853Z,16.37
2018-11-20T15:04:47.761Z,21.90
2018-11-20T15:07:25.092Z,18.20
2018-11-20T15:10:12.312Z,20.37
2018-11-20T15:12:49.352Z,17.67
2018-11-20T15:15:38.926Z,22.20
2018-11-20T15:18:26.392Z,17.20
2018-11-20T15:21:07.461Z,20.63
2018-11-20T15:23:43.349Z,17.20
2018-11-20T15:26:24.158Z,19.67
2018-11-20T15:29:11.394Z,16.27
2018-11-20T15:31:58.546Z,17.30
2018-11-20T15:34:45.809Z,17.23
2018-11-20T15:37:30.270Z,19.93
2018-11-20T15:40:17.502Z,20.30
2018-11-20T15:43:01.354Z,15.90
2018-11-20T15:45:48.566Z,19.93
2018-11-20T15:48:35.780Z,18.47
2018-11-20T15:51:14.820Z,20.40
2018-11-20T15:54:02.021Z,20.47
2018-11-20T15:56:42.230Z,15.60
2018-11-20T15:59:27.773Z,21.10
2018-11-20T16:02:14.030Z,24.83
2018-11-20T16:05:01.752Z,23.53
2018-11-20T16:07:48.986Z,34.03
2018-11-20T16:10:26.731Z,27.90
2018-11-20T16:13:04.645Z,31.83
2018-11-20T16:15:51.398Z,28.33
2018-11-20T16:18:38.674Z,29.13
2018-11-20T16:21:19.322Z,24.77
2018-11-20T16:24:07.040Z,19.67
2018-11-20T16:26:43.148Z,19.07
2018-11-20T16:29:31.219Z,22.23
2018-11-20T16:32:11.998Z,18.83
2018-11-20T16:34:59.246Z,20.03
2018-11-20T16:37:46.543Z,14.80
2018-11-20T16:40:33.940Z,19.67
2018-11-20T16:43:21.200Z,18.57
2018-11-20T16:46:08.463Z,17.93
2018-11-20T16:48:55.648Z,16.60
2018-11-20T16:51:43.023Z,18.67
2018-11-20T16:54:30.291Z,18.40
2018-11-20T16:57:08.933Z,21.13
2018-11-20T16:59:56.177Z,19.90
2018-11-20T17:02:41.677Z,19.90
2018-11-20T17:05:28.865Z,17.63
2018-11-20T17:08:04.531Z,19.10
2018-11-20T17:10:51.749Z,18.53
2018-11-20T17:13:39.700Z,20.00
2018-11-20T17:16:26.937Z,16.93
2018-11-20T17:19:14.394Z,16.43
2018-11-20T17:22:01.587Z,17.43
2018-11-20T17:24:48.921Z,21.20
2018-11-20T17:27:36.212Z,18.63
2018-11-20T17:30:22.309Z,23.33
2018-11-20T17:33:00.521Z,23.33
2018-11-20T17:35:47.739Z,27.43
2018-11-20T17:38:34.965Z,28.67
2018-11-20T17:41:15.996Z,23.93
2018-11-20T17:44:03.432Z,23.73
2018-11-20T17:46:50.651Z,20.80
2018-11-20T17:49:37.899Z,23.20
2018-11-20T17:52:25.365Z,19.27
2018-11-20T17:55:03.251Z,23.83
2018-11-20T17:57:53.370Z,19.27
2018-11-20T18:00:32.199Z,21.53
2018-11-20T18:03:19.421Z,19.43
2018-11-20T18:06:01.883Z,22.77
2018-11-20T18:08:49.142Z,21.87
2018-11-20T18:11:36.349Z,17.20
2018-11-20T18:14:23.839Z,20.83
2018-11-20T18:17:00.911Z,20.47
2018-11-20T18:19:44.975Z,27.77
2018-11-20T18:22:30.107Z,20.27
2018-11-20T18:25:14.835Z,41.03
2018-11-20T18:28:02.051Z,21.43
2018-11-20T18:30:41.693Z,22.40
2018-11-20T18:33:25.978Z,32.70
2018-11-20T18:36:13.203Z,29.97
2018-11-20T18:39:00.381Z,20.03
2018-11-20T18:41:47.611Z,26.37
2018-11-20T18:44:35.021Z,30.17
2018-11-20T18:47:21.256Z,26.97
2018-11-20T18:50:08.531Z,29.80
2018-11-20T18:52:44.476Z,35.03
2018-11-20T18:55:31.713Z,37.97
2018-11-20T18:58:18.969Z,34.87
2018-11-20T19:01:06.167Z,38.60
2018-11-20T19:03:48.041Z,36.00
2018-11-20T19:06:35.277Z,43.87
2018-11-20T19:09:23.118Z,30.97
2018-11-20T19:12:11.060Z,24.07
2018-11-20T19:14:53.239Z,26.40
2018-11-20T19:17:40.452Z,23.53
2018-11-20T19:20:27.671Z,25.30
2018-11-20T19:23:15.129Z,19.90
2018-11-20T19:26:02.382Z,26.17
2018-11-20T19:28:47.123Z,22.63
2018-11-20T19:31:41.183Z,18.97
2018-11-20T19:34:21.565Z,22.40
2018-11-20T19:37:08.871Z,22.80
2018-11-20T19:39:50.088Z,22.70
2018-11-20T19:42:31.552Z,26.90
2018-11-20T19:45:18.767Z,24.60
2018-11-20T19:48:05.994Z,24.07
2018-11-20T19:50:57.792Z,28.73
2018-11-20T19:53:40.471Z,24.53
2018-11-20T19:56:27.674Z,27.47
2018-11-20T19:59:14.894Z,26.27
2018-11-20T20:02:02.110Z,24.30
2018-11-20T20:04:50.092Z,24.57
2018-11-20T20:07:37.332Z,27.40
2018-11-20T20:10:30.918Z,26.20
2018-11-20T20:13:13.668Z,29.13
2018-11-20T20:15:56.932Z,25.67
2018-11-20T20:18:44.142Z,22.03
2018-11-20T20:21:25.790Z,21.03
2018-11-20T20:24:09.704Z,21.60
2018-11-20T20:26:57.198Z,20.80
2018-11-20T20:29:37.657Z,17.57
2018-11-20T20:32:24.938Z,22.70
2018-11-20T20:35:12.147Z,16.17
2018-11-20T20:37:59.524Z,17.00
2018-11-20T20:40:46.788Z,17.57
2018-11-20T20:43:31.970Z,20.57
2018-11-20T20:46:19.190Z,21.03
2018-11-20T20:49:06.399Z,19.17
2018-11-20T20:51:53.708Z,23.87
2018-11-20T20:54:41.687Z,22.77
2018-11-20T20:57:16.167Z,20.23
2018-11-20T20:59:54.838Z,20.57
2018-11-20T21:02:34.456Z,19.63
2018-11-20T21:05:10.849Z,19.43
2018-11-20T21:07:58.076Z,20.97
2018-11-20T21:10:39.666Z,22.60
2018-11-20T21:13:26.908Z,27.30
2018-11-20T21:16:07.874Z,19.70
2018-11-20T21:18:45.585Z,16.73
2018-11-20T21:21:26.032Z,20.30
2018-11-20T21:24:13.274Z,22.00
2018-11-20T21:27:00.503Z,17.57
2018-11-20T21:29:45.711Z,17.03
2018-11-20T21:32:24.400Z,21.20
2018-11-20T21:35:11.599Z,16.83
2018-11-20T21:37:58.831Z,26.87
2018-11-20T21:40:37.199Z,21.90
2018-11-20T21:43:24.422Z,19.27
2018-11-20T21:46:11.685Z,22.07
2018-11-20T21:48:55.218Z,22.53
2018-11-20T21:51:42.413Z,22.67
2018-11-20T21:54:30.354Z,22.20
2018-11-20T21:57:06.125Z,30.20
2018-11-20T21:59:57.122Z,22.53
2018-11-20T22:02:38.592Z,20.07
2018-11-20T22:05:26.052Z,19.87
2018-11-20T22:08:03.699Z,23.27
2018-11-20T22:10:50.905Z,22.00
2018-11-20T22:13:38.089Z,20.27
2018-11-20T22:16:25.329Z,18.77
2018-11-20T22:19:08.875Z,19.93
2018-11-20T22:21:45.800Z,24.63
2018-11-20T22:24:32.985Z,19.93
2018-11-20T22:27:20.154Z,17.80
2018-11-20T22:30:07.365Z,30.17
2018-11-20T22:32:54.602Z,20.67
2018-11-20T22:35:41.779Z,23.23
2018-11-20T22:38:29.025Z,21.50
2018-11-20T22:41:09.675Z,19.90
2018-11-20T22:43:56.880Z,21.57
2018-11-20T22:46:40.445Z,24.30
2018-11-20T22:49:27.677Z,23.10
2018-11-20T22:52:14.848Z,20.17
2018-11-20T22:55:02.308Z,23.27
2018-11-20T22:57:49.529Z,24.47
2018-11-20T23:00:26.156Z,19.00
2018-11-20T23:03:03.567Z,18.73
2018-11-20T23:05:48.074Z,26.13
2018-11-20T23:08:15.994Z,21.50
2018-11-20T23:10:43.934Z,20.63
2018-11-20T23:13:11.861Z,15.40
2018-11-20T23:15:39.845Z,21.37
2018-11-20T23:18:07.812Z,21.87
2018-11-20T23:20:35.738Z,21.10
2018-11-20T23:23:03.685Z,19.43
2018-11-20T23:25:31.617Z,23.20
2018-11-20T23:27:59.548Z,20.90
2018-11-20T23:30:28.018Z,21.83
2018-11-20T23:32:55.947Z,21.77
2018-11-20T23:35:23.885Z,18.73
2018-11-20T23:37:51.841Z,18.53
2018-11-20T23:40:19.782Z,18.37
2018-11-20T23:42:47.751Z,17.40
2018-11-20T23:45:15.940Z,25.37
2018-11-20T23:47:43.888Z,27.57
2018-11-20T23:50:13.389Z,21.53
2018-11-20T23:52:41.347Z,20.93
2018-11-20T23:55:11.723Z,23.73
2018-11-20T23:57:39.711Z,20.73
